»·PEaware :: N351BL KSEZ-KAEG

N351BL :: KSEZ-KAEG

FLIGHT INFORMATION

Flight Status: Arrived
Operator: Privately registered:
United States
More flights under this callsign
Pilot: Brett L. (10300)
Aircraft: BEECH AIRCRAFT SUPER KING AIR 350
(B350)
More flights by this aircraft type
Origin: KSEZ Sedona
United States
Destination: KAEG Double Eagle Ii
United States
More flights between these airports :: More routes between these airports
Route: OATES ZUN LAVAN3
File this flight plan on PilotEdge
Remarks: / / FSEconomy / / #SquawkDirty
Altitude:
(Current/Filed)
27,000ft
Speed:
(Current/Filed)
300kts
Departed: 16-Dec-17 08:28 AM
Arrived: 16-Dec-17 09:21 AM
Distance/Time
Traveled:
246nm/0:53
Distance/Time
To Go:
Arrived

Flight Plot

Page will automatically refresh every two minutes.


Map Options




Map Legend


Flown Route
Filed Route
Departure Airport
Arrival Airport
Navaid (VOR, NDB)
Fix

Horizontal Profiles

Position Reports

Time Latitude Longitude Heading Altitude Ground
Speed
16-Dec-17 08:20 34.848855 -111.792882 228 4835ft 0kts
16-Dec-17 08:21 34.848855 -111.792882 228 4835ft 0kts
16-Dec-17 08:22 34.848855 -111.792882 228 4835ft 0kts
16-Dec-17 08:23 34.848855 -111.792882 228 4835ft 0kts
16-Dec-17 08:24 34.848855 -111.792882 228 4835ft 0kts
16-Dec-17 08:25 34.848855 -111.792882 228 4835ft 0kts
16-Dec-17 08:26 34.848855 -111.792882 228 4835ft 0kts
16-Dec-17 08:27 34.848854 -111.792882 228 4835ft 0kts
16-Dec-17 08:28 34.848854 -111.792883 228 4835ft 0kts
16-Dec-17 08:29 34.848852 -111.792885 228 4835ft 0kts
16-Dec-17 08:30 34.847656 -111.791301 151 4835ft 15kts
16-Dec-17 08:31 34.845412 -111.792947 160 4835ft 0kts
16-Dec-17 08:32 34.844494 -111.793634 227 4835ft 24kts
16-Dec-17 08:33 34.843846 -111.794414 46 4835ft 0kts
16-Dec-17 08:34 34.857017 -111.769413 72 5666ft 164kts
16-Dec-17 08:35 34.868396 -111.711283 81 8346ft 182kts
16-Dec-17 08:36 34.873070 -111.649624 90 11215ft 191kts
16-Dec-17 08:37 34.876604 -111.578417 86 13556ft 220kts
16-Dec-17 08:38 34.880147 -111.503710 87 16424ft 223kts
16-Dec-17 08:39 34.883674 -111.426627 87 18968ft 233kts
16-Dec-17 08:40 34.887153 -111.346330 87 21290ft 241kts
16-Dec-17 08:41 34.891001 -111.263258 88 23389ft 249kts
16-Dec-17 08:42 34.894760 -111.177749 88 25353ft 257kts
16-Dec-17 08:43 34.898592 -111.088692 88 26843ft 278kts
16-Dec-17 08:44 34.902868 -110.986171 88 26961ft 324kts
16-Dec-17 08:45 34.907547 -110.873125 88 26959ft 342kts
16-Dec-17 08:46 34.912309 -110.755890 88 26959ft 348kts
16-Dec-17 08:47 34.916998 -110.637868 89 26959ft 350kts
16-Dec-17 08:48 34.921590 -110.519154 89 26959ft 351kts
16-Dec-17 08:49 34.926071 -110.399866 89 26959ft 351kts
16-Dec-17 08:50 34.930427 -110.280963 89 26960ft 351kts
16-Dec-17 08:51 34.934590 -110.162067 89 26961ft 351kts
16-Dec-17 08:52 34.938695 -110.042740 89 26958ft 351kts
16-Dec-17 08:53 34.942662 -109.924105 89 26956ft 349kts
16-Dec-17 08:54 34.946459 -109.805788 89 26959ft 348kts
16-Dec-17 08:55 34.950307 -109.688136 89 26962ft 347kts
16-Dec-17 08:56 34.953991 -109.570555 89 26964ft 347kts
16-Dec-17 08:57 34.957520 -109.452607 89 26966ft 347kts
16-Dec-17 08:58 34.960896 -109.335103 89 26970ft 347kts
16-Dec-17 08:59 34.964132 -109.217735 89 26973ft 346kts
16-Dec-17 09:00 34.952858 -109.101875 104 26975ft 343kts
16-Dec-17 09:01 34.931193 -108.989030 105 26981ft 342kts
16-Dec-17 09:02 34.908314 -108.876739 105 26982ft 341kts
16-Dec-17 09:03 34.884969 -108.764447 105 26986ft 341kts
16-Dec-17 09:04 34.861599 -108.652802 105 26990ft 340kts
16-Dec-17 09:05 34.838757 -108.543911 105 26449ft 324kts
16-Dec-17 09:06 34.816404 -108.438355 106 25542ft 323kts
16-Dec-17 09:07 34.792810 -108.327659 106 24560ft 348kts
16-Dec-17 09:08 34.767998 -108.211144 105 23182ft 359kts
16-Dec-17 09:09 34.742697 -108.093056 105 21687ft 362kts
16-Dec-17 09:10 34.717523 -107.976184 105 20520ft 357kts
16-Dec-17 09:11 34.692150 -107.859201 105 18729ft 352kts
16-Dec-17 09:12 34.669266 -107.745728 95 16930ft 343kts
16-Dec-17 09:13 34.679563 -107.631203 78 15131ft 340kts
16-Dec-17 09:14 34.700591 -107.519849 75 13335ft 336kts
16-Dec-17 09:15 34.721931 -107.412435 75 12088ft 306kts
16-Dec-17 09:16 34.740730 -107.317157 75 12000ft 285kts
16-Dec-17 09:17 34.766228 -107.222328 53 12002ft 303kts
16-Dec-17 09:18 34.826848 -107.150143 37 11622ft 312kts
16-Dec-17 09:19 34.895481 -107.085508 36 10125ft 308kts
16-Dec-17 09:20 34.961330 -107.024511 37 9095ft 272kts
16-Dec-17 09:21 35.014309 -106.966235 44 8998ft 260kts
16-Dec-17 09:22 35.068185 -106.898906 46 9001ft 287kts
16-Dec-17 09:23 35.124087 -106.828046 45 8995ft 282kts
16-Dec-17 09:24 35.181428 -106.777437 23 8001ft 234kts
16-Dec-17 09:25 35.187427 -106.743151 222 6824ft 140kts
16-Dec-17 09:26 35.161560 -106.780751 225 6267ft 127kts
16-Dec-17 09:27 35.146165 -106.800404 314 5842ft 10kts

Navigation Log

Ident Type
Flight plan parsing failed, navigation log unavailable